• Join FlightAware (Why Join?)
  • Login
  • US Flag 
04:45AM EDT


 

Airport Tracker/Info


-or-


 

Live Flight TrackerFlight Track Log ✈ JBU9511 ✈ 15-May-2013 ✈ KJFK - KCHS

Flight Track Log - Related Links

Times and Time Zones

All times are in EDT time to prevent confusion due to time zone crossing. See the JBU9511 flight status page for this flight to view local times or setup timezone preferences in your user account.

Time Position Orientation Groundspeed Altitude Reporting Facility
EDT Latitude Longitude Course Direction KTS MPH feet Rate Location/Type
09:17AM 40.6400 -73.7980 217° Southwest 143 165 300  Level FlightAware
09:17AM 40.6330 -73.7870 130° Southeast 138 159 1,100 2,520 Climbing FlightAware
09:17AM 40.6180 -73.7770 153° Southeast 162 186 2,000 1,920 Climbing FlightAware
09:18AM 40.5950 -73.7620 154° Southeast 210 242 2,900 2,400 Climbing FlightAware
09:18AM 40.5670 -73.7360 145° Southeast 256 295 4,400 3,120 Climbing FlightAware
09:19AM 40.5440 -73.7110 140° Southeast 273 314 5,800 3,600 Climbing FlightAware
09:19AM 40.5150 -73.6800 141° Southeast 283 326 7,700 3,900 Climbing FlightAware
09:19AM 40.5067 -73.6716 142° Southeast 291 335 8,100 3,300 Climbing FlightAware ADS-B
09:20AM 40.4897 -73.6543 142° Southeast 308 354 8,800 3,000 Climbing FlightAware ADS-B
09:20AM 40.4719 -73.6365 143° Southeast 320 368 9,600 3,000 Climbing FlightAware ADS-B
09:20AM 40.4336 -73.5988 143° Southeast 341 392 11,100 2,340 Climbing FlightAware ADS-B
09:21AM 40.3936 -73.5590 143° Southeast 378 435 12,000 960 Climbing FlightAware ADS-B
09:21AM 40.3493 -73.5145 143° Southeast 385 443 12,100 1,740 Climbing FlightAware ADS-B
09:22AM 40.3037 -73.4660 141° Southeast 390 449 13,900 2,820 Climbing FlightAware ADS-B
09:22AM 40.2536 -73.4261 149° Southeast 395 455 15,200 2,520 Climbing FlightAware ADS-B
09:23AM 40.2424 -73.4230 168° South 401 461 15,500 2,280 Climbing FlightAware ADS-B
09:23AM 40.1955 -73.4194 177° South 415 478 16,400 2,520 Climbing FlightAware ADS-B
09:24AM 40.1294 -73.4155 177° South 422 486 18,000 2,760 Climbing FlightAware ADS-B
09:24AM 40.0677 -73.4113 177° South 428 493 19,400 2,460 Climbing FlightAware ADS-B
09:25AM 40.0049 -73.4071 177° South 437 503 20,600 2,160 Climbing FlightAware ADS-B
09:25AM 39.9706 -73.4094 183° South 436 502 21,200 2,340 Climbing FlightAware ADS-B
09:25AM 39.9487 -73.4166 194° South 429 494 21,700 2,340 Climbing FlightAware ADS-B
09:26AM 39.8890 -73.4441 199° South 425 489 22,900 960 Climbing FlightAware ADS-B
09:26AM 39.8058 -73.4919 204° Southwest 412 474 23,000 60 Climbing FlightAware ADS-B
09:26AM 39.8004 -73.4981 221° Southwest 407 468 23,000  Level FlightAware ADS-B
09:27AM 39.7883 -73.5138 225° Southwest 402 463 23,000 120 Level FlightAware ADS-B
09:27AM 39.7485 -73.5677 226° Southwest 403 464 23,100 720 Climbing FlightAware ADS-B
09:28AM 39.7082 -73.6223 226° Southwest 412 474 23,800 1,800 Climbing FlightAware ADS-B
09:28AM 39.6570 -73.6908 226° Southwest 417 480 25,200 2,220 Climbing FlightAware ADS-B
09:29AM 39.6161 -73.7452 226° Southwest 415 478 26,400 2,100 Climbing FlightAware ADS-B
09:29AM 39.5737 -73.8020 226° Southwest 420 483 27,400 1,920 Climbing FlightAware ADS-B
09:30AM 39.5314 -73.8584 226° Southwest 423 487 28,400 1,500 Climbing FlightAware ADS-B
09:30AM 39.4894 -73.9144 226° Southwest 431 496 29,000 1,200 Climbing FlightAware ADS-B
09:31AM 39.4461 -73.9720 226° Southwest 440 506 29,700 1,200 Climbing FlightAware ADS-B
09:31AM 39.4068 -74.0223 225° Southwest 453 521 30,200 1,020 Climbing FlightAware ADS-B
09:31AM 39.3931 -74.0375 221° Southwest 460 529 30,300 1,080 Climbing FlightAware ADS-B
09:32AM 39.3341 -74.1016 220° Southwest 469 540 31,000 1,380 Climbing FlightAware ADS-B
09:33AM 39.2827 -74.1581 220° Southwest 467 537 31,900 1,740 Climbing FlightAware ADS-B
09:33AM 39.2284 -74.2173 220° Southwest 465 535 32,900 1,800 Climbing FlightAware ADS-B
09:34AM 39.1794 -74.2704 220° Southwest 462 532 33,800 1,380 Climbing FlightAware ADS-B
09:34AM 39.1299 -74.3243 220° Southwest 465 535 34,300 1,500 Climbing FlightAware ADS-B
09:35AM 39.0781 -74.3803 220° Southwest 458 527 35,400 1,500 Climbing FlightAware ADS-B
09:35AM 39.0272 -74.4354 220° Southwest 461 531 35,900 1,440 Climbing FlightAware ADS-B
09:36AM 38.9778 -74.4886 220° Southwest 454 522 36,900 1,440 Climbing FlightAware ADS-B
09:36AM 38.9285 -74.5416 220° Southwest 454 522 37,400 960 Climbing FlightAware ADS-B
09:37AM 38.8801 -74.5936 220° Southwest 452 520 37,900 420 Climbing FlightAware ADS-B
09:38AM 38.7912 -74.6888 220° Southwest 450 518 38,000 60 Climbing FlightAware ADS-B
09:38AM 38.7412 -74.7421 220° Southwest 453 521 38,000  Level FlightAware ADS-B
09:39AM 38.6907 -74.7959 220° Southwest 454 522 38,000  Level FlightAware ADS-B
09:39AM 38.6089 -74.8830 220° Southwest 454 522 38,000  Level FlightAware ADS-B
09:40AM 38.5584 -74.9366 220° Southwest 454 522 38,000  Level FlightAware ADS-B
09:40AM 38.5412 -74.9540 218° Southwest 457 526 38,000  Level FlightAware ADS-B
09:41AM 38.4202 -75.0579 214° Southwest 463 533 38,000  Level FlightAware ADS-B
09:42AM 38.3651 -75.1053 214° Southwest 462 532 38,000  Level FlightAware ADS-B
09:42AM 38.3123 -75.1507 214° Southwest 462 532 38,000  Level FlightAware ADS-B
09:44AM 38.0951 -75.3361 214° Southwest 458 527 38,000  Level FlightAware ADS-B
09:45AM 38.0406 -75.3826 214° Southwest 457 526 38,000  Level FlightAware ADS-B
09:45AM 37.9834 -75.4313 214° Southwest 457 526 38,000  Level FlightAware ADS-B
09:46AM 37.9020 -75.5000 214° Southwest 450 518 38,000  Level FlightAware
09:47AM 37.8193 -75.5701 214° Southwest 457 526 38,000  Level FlightAware ADS-B
09:48AM 37.7642 -75.6166 214° Southwest 458 527 38,000  Level FlightAware ADS-B
09:48AM 37.7103 -75.6620 214° Southwest 460 529 38,000  Level FlightAware ADS-B
09:49AM 37.6560 -75.7078 214° Southwest 461 531 38,000  Level FlightAware ADS-B
09:49AM 37.6007 -75.7541 214° Southwest 460 529 38,000  Level FlightAware ADS-B
09:50AM 37.5471 -75.7989 214° Southwest 459 528 38,000  Level FlightAware ADS-B
09:51AM 37.4228 -75.9026 214° Southwest 459 528 38,000  Level FlightAware ADS-B
09:51AM 37.3650 -75.9506 213° Southwest 456 525 38,000  Level FlightAware ADS-B
09:52AM 37.3056 -76.0000 213° Southwest 454 522 38,000  Level FlightAware ADS-B
09:52AM 37.2477 -76.0481 213° Southwest 454 522 38,000  Level FlightAware ADS-B
09:53AM 37.1925 -76.0938 213° Southwest 453 521 38,000  Level FlightAware ADS-B
09:53AM 37.1369 -76.1398 213° Southwest 454 522 38,000  Level FlightAware ADS-B
09:54AM 37.0679 -76.1973 214° Southwest 452 520 38,000  Level FlightAware ADS-B
09:55AM 37.0155 -76.2455 216° Southwest 452 520 38,000  Level FlightAware ADS-B
09:55AM 36.9642 -76.2932 217° Southwest 454 522 38,000  Level FlightAware ADS-B
09:56AM 36.9082 -76.3448 216° Southwest 456 525 38,000 60 Level FlightAware ADS-B
09:56AM 36.8327 -76.4134 216° Southwest 456 525 38,100  Climbing FlightAware ADS-B
09:58AM 36.7230 -76.5130 216° Southwest 453 521 38,000 -60 Descending FlightAware
09:58AM 36.6540 -76.5760 216° Southwest 453 521 38,000  Level FlightAware
09:59AM 36.5870 -76.6350 215° Southwest 453 521 38,000  Level FlightAware
10:00AM 36.5190 -76.6970 216° Southwest 453 521 38,000 -180 Level FlightAware
10:00AM 36.4270 -76.7780 215° Southwest 451 519 37,800 -600 Descending FlightAware
10:01AM 36.3410 -76.8560 216° Southwest 444 511 37,000 -1,080 Descending FlightAware
10:02AM 36.2580 -76.9310 216° Southwest 444 511 36,000 -720 Descending FlightAware
10:03AM 36.1930 -76.9890 216° Southwest 444 511 36,000  Level FlightAware
10:04AM 36.1360 -77.0400 216° Southwest 444 511 36,000  Level FlightAware
10:04AM 36.0800 -77.0910 216° Southwest 444 511 36,000  Level FlightAware
10:05AM 35.9710 -77.1850 215° Southwest 454 522 36,000  Level FlightAware
10:06AM 35.8930 -77.2540 216° Southwest 455 524 36,000  Level FlightAware
10:06AM 35.8220 -77.3160 215° Southwest 453 521 36,000 -480 Level FlightAware
10:07AM 35.7590 -77.3720 216° Southwest 436 502 35,400 -960 Descending FlightAware
10:08AM 35.6850 -77.4370 216° Southwest 435 501 34,700 -960 Descending FlightAware
10:08AM 35.6190 -77.4950 216° Southwest 439 505 34,100 -1,020 Descending FlightAware
10:09AM 35.5440 -77.5600 215° Southwest 438 504 33,300 -1,020 Descending FlightAware
10:10AM 35.4810 -77.6140 215° Southwest 433 498 32,700 -900 Descending FlightAware
10:11AM 35.4090 -77.6770 216° Southwest 435 501 32,100 -540 Descending FlightAware
10:11AM 35.3420 -77.7350 215° Southwest 435 501 32,000 -120 Descending FlightAware
10:12AM 35.2800 -77.7890 215° Southwest 441 507 32,000  Level FlightAware
10:13AM 35.2230 -77.8370 215° Southwest 441 507 32,000  Level FlightAware
10:13AM 35.1520 -77.8980 215° Southwest 441 507 32,000  Level FlightAware
10:14AM 35.0950 -77.9470 215° Southwest 441 507 32,000  Level FlightAware
10:15AM 35.0380 -77.9960 215° Southwest 441 507 32,000  Level FlightAware
10:15AM 34.9820 -78.0440 215° Southwest 441 507 32,000 -540 Level FlightAware
10:17AM 34.7500 -78.2440 215° Southwest 30,600 -660 Descending FlightAware
10:18AM 34.6750 -78.3070 215° Southwest 420 483 30,300 -240 Descending FlightAware
10:19AM 34.6210 -78.3530 215° Southwest 420 483 30,300  Level FlightAware
10:19AM 34.5670 -78.3990 215° Southwest 420 483 30,300  Level FlightAware
10:20AM 34.5130 -78.4450 215° Southwest 420 483 30,300 -900 Level FlightAware
10:21AM 34.4140 -78.5380 218° Southwest 28,000 -1,200 Descending FlightAware
10:22AM 34.3040 -78.6500 220° Southwest 407 468 28,000  Level FlightAware
10:23AM 34.2590 -78.6960 220° Southwest 407 468 28,000 -240 Level FlightAware
10:24AM 34.1730 -78.7990 225° Southwest 404 465 27,700 -540 Descending FlightAware
10:24AM 34.1200 -78.8600 224° Southwest 401 461 27,100 -1,140 Descending FlightAware
10:25AM 34.0600 -78.9290 224° Southwest 396 456 26,100 -1,440 Descending FlightAware
10:26AM 34.0050 -78.9910 223° Southwest 379 436 25,100 -1,200 Descending FlightAware
10:26AM 33.9490 -79.0550 223° Southwest 373 429 24,400 -1,020 Descending FlightAware
10:27AM 33.8970 -79.1130 223° Southwest 375 432 23,700 -1,500 Descending FlightAware
10:28AM 33.8410 -79.1760 223° Southwest 377 434 22,300 -2,280 Descending FlightAware
10:29AM 33.7880 -79.2340 222° Southwest 379 436 20,500 -2,400 Descending FlightAware
10:29AM 33.7300 -79.2790 213° Southwest 373 429 19,100 -2,160 Descending FlightAware
10:30AM 33.6660 -79.3280 213° Southwest 366 421 17,500 -1,980 Descending FlightAware
10:31AM 33.6090 -79.3720 213° Southwest 353 406 16,300 -1,800 Descending FlightAware
10:31AM 33.5540 -79.4130 212° Southwest 343 395 15,100 -1,800 Descending FlightAware
10:32AM 33.4950 -79.4570 212° Southwest 336 387 13,800 -1,740 Descending FlightAware
10:33AM 33.4420 -79.4970 212° Southwest 329 379 12,700 -1,680 Descending FlightAware
10:33AM 33.3860 -79.5390 212° Southwest 321 369 11,500 -1,680 Descending FlightAware
10:34AM 33.3360 -79.5770 212° Southwest 310 357 10,400 -1,680 Descending FlightAware
10:35AM 33.3000 -79.6050 213° Southwest 293 337 9,600 -2,100 Descending FlightAware
10:35AM 33.2710 -79.6260 211° Southwest 295 339 8,500 -1,980 Descending FlightAware
10:36AM 33.2400 -79.6500 213° Southwest 290 334 7,800 -840 Descending FlightAware
10:36AM 33.2080 -79.6810 219° Southwest 285 328 7,700 -780 Descending FlightAware
10:36AM 33.1910 -79.7150 239° Southwest 275 316 7,100 -1,800 Descending FlightAware
10:37AM 33.1660 -79.7440 224° Southwest 275 316 6,100 -1,860 Descending FlightAware
10:37AM 33.1440 -79.7700 225° Southwest 268 308 5,400 -840 Descending FlightAware
10:38AM 33.1240 -79.7940 225° Southwest 268 308 5,400 -1,800 Level FlightAware
10:38AM 33.0942 -79.8381 225° Southwest 277 319 3,700 -1,920 Descending Jacksonville Center
10:39AM 33.0536 -79.8939 229° Southwest 271 312 2,500 -1,020 Descending Jacksonville Center
10:40AM 33.0111 -79.9522 229° Southwest 259 298 1,700 -480 Descending Jacksonville Center
10:41AM 32.9767 -79.9956 227° Southwest 225 259 1,600 -120 Descending Jacksonville Center
10:43AM 32.8986 -80.0405 220° Southwest  Level Estimated
10:50AM 32.8986 -80.0405 348° North  Level Estimated
10:51AM 32.8986 -80.0405 348° North  Level Estimated
10:52AM 32.8986 -80.0405 348° North  Level Estimated